EKSB/SGD METAR and TAF weather

Enter ICAO airport designator
Station Type Date Time Source
EKSB METAR 2019/04/22 20:20 UTC NOAA

EKSB 222020Z AUTO 09020KT 9999NDV NCD 11/06 Q1016


Station Type Date Time Source
EKSB Decoded METAR 2019/04/22 20:20 UTC NOAA

Soenderborg Lufthavn, Denmark (EKSB) 54-58N 009-47E 14M
Apr 22, 2019 - 04:20 PM EDT / 2019.04.22 2020 UTC
Wind: from the E (090 degrees) at 23 MPH (20 KT):0
Temperature: 51 F (11 C)
Dew Point: 42 F (6 C)
Relative Humidity: 71%
Pressure (altimeter): 30.00 in. Hg (1016 hPa)
ob: EKSB 222020Z AUTO 09020KT 9999NDV NCD 11/06 Q1016
cycle: 20

Station Type Date Time Source
EKSB TAF 2016/01/27 09:03 UTC NOAA

TAF TAF EKSB 270856Z 2709/2721 23022KT 5000 -RA BR BKN008
TEMPO 2709/2721 24025G40KT 2000 RADZ BKN004

Example: see airport list